sensor_id;sensor_type;location;lat;lon;timestamp;temperature;humidity
20366;DHT22;10341;49.894;8.822;2023-11-19T00:04:16;8.80;99.90
20366;DHT22;10341;49.894;8.822;2023-11-19T00:09:36;8.90;99.90
20366;DHT22;10341;49.894;8.822;2023-11-19T00:14:57;8.90;99.90
20366;DHT22;10341;49.894;8.822;2023-11-19T00:20:18;9.00;99.90
20366;DHT22;10341;49.894;8.822;2023-11-19T00:25:37;9.00;99.90
20366;DHT22;10341;49.894;8.822;2023-11-19T00:30:57;9.00;99.90
20366;DHT22;10341;49.894;8.822;2023-11-19T00:36:16;9.00;99.90
20366;DHT22;10341;49.894;8.822;2023-11-19T00:41:35;9.10;99.90
20366;DHT22;10341;49.894;8.822;2023-11-19T00:46:54;9.10;99.90
20366;DHT22;10341;49.894;8.822;2023-11-19T00:52:15;9.10;99.90
20366;DHT22;10341;49.894;8.822;2023-11-19T00:57:35;9.10;99.90
20366;DHT22;10341;49.894;8.822;2023-11-19T01:02:54;9.20;99.90
20366;DHT22;10341;49.894;8.822;2023-11-19T01:08:13;9.20;99.90
20366;DHT22;10341;49.894;8.822;2023-11-19T01:13:34;9.20;99.90
20366;DHT22;10341;49.894;8.822;2023-11-19T01:18:53;9.30;99.90
20366;DHT22;10341;49.894;8.822;2023-11-19T01:24:12;9.30;99.90
20366;DHT22;10341;49.894;8.822;2023-11-19T01:29:33;9.30;99.90
20366;DHT22;10341;49.894;8.822;2023-11-19T01:34:53;9.40;99.90
20366;DHT22;10341;49.894;8.822;2023-11-19T01:40:12;9.40;99.90
20366;DHT22;10341;49.894;8.822;2023-11-19T01:45:33;9.50;99.90
20366;DHT22;10341;49.894;8.822;2023-11-19T01:50:53;9.50;99.90
20366;DHT22;10341;49.894;8.822;2023-11-19T01:56:13;9.60;99.90
20366;DHT22;10341;49.894;8.822;2023-11-19T02:01:34;9.60;99.90
20366;DHT22;10341;49.894;8.822;2023-11-19T02:06:58;9.60;99.90
20366;DHT22;10341;49.894;8.822;2023-11-19T02:12:18;9.60;99.90
20366;DHT22;10341;49.894;8.822;2023-11-19T02:17:39;9.70;99.90
20366;DHT22;10341;49.894;8.822;2023-11-19T02:22:59;9.80;99.90
20366;DHT22;10341;49.894;8.822;2023-11-19T02:28:18;9.80;99.90
20366;DHT22;10341;49.894;8.822;2023-11-19T02:33:38;9.80;99.90
20366;DHT22;10341;49.894;8.822;2023-11-19T02:38:58;9.90;99.90
20366;DHT22;10341;49.894;8.822;2023-11-19T02:44:17;9.90;99.90
20366;DHT22;10341;49.894;8.822;2023-11-19T02:49:37;9.90;99.90
20366;DHT22;10341;49.894;8.822;2023-11-19T02:54:56;10.00;99.90
20366;DHT22;10341;49.894;8.822;2023-11-19T03:00:21;10.00;99.90
20366;DHT22;10341;49.894;8.822;2023-11-19T03:05:47;10.10;99.90
20366;DHT22;10341;49.894;8.822;2023-11-19T03:11:08;10.10;99.90
20366;DHT22;10341;49.894;8.822;2023-11-19T03:16:28;10.20;99.90
20366;DHT22;10341;49.894;8.822;2023-11-19T03:21:47;10.20;99.90
20366;DHT22;10341;49.894;8.822;2023-11-19T03:27:07;10.20;99.90
20366;DHT22;10341;49.894;8.822;2023-11-19T03:32:26;10.20;99.90
20366;DHT22;10341;49.894;8.822;2023-11-19T03:37:46;10.30;99.90
20366;DHT22;10341;49.894;8.822;2023-11-19T03:43:05;10.30;99.90
20366;DHT22;10341;49.894;8.822;2023-11-19T03:48:25;10.40;99.90
20366;DHT22;10341;49.894;8.822;2023-11-19T03:53:45;10.40;99.90
20366;DHT22;10341;49.894;8.822;2023-11-19T03:59:04;10.40;99.90
20366;DHT22;10341;49.894;8.822;2023-11-19T04:04:23;10.40;99.90
20366;DHT22;10341;49.894;8.822;2023-11-19T04:09:42;10.40;99.90
20366;DHT22;10341;49.894;8.822;2023-11-19T04:15:02;10.40;99.90
20366;DHT22;10341;49.894;8.822;2023-11-19T04:20:22;10.50;99.90
20366;DHT22;10341;49.894;8.822;2023-11-19T04:25:41;10.50;99.90
20366;DHT22;10341;49.894;8.822;2023-11-19T04:31:00;10.60;99.90
20366;DHT22;10341;49.894;8.822;2023-11-19T04:36:19;10.60;99.90
20366;DHT22;10341;49.894;8.822;2023-11-19T04:41:46;10.60;99.90
20366;DHT22;10341;49.894;8.822;2023-11-19T04:47:07;10.70;99.90
20366;DHT22;10341;49.894;8.822;2023-11-19T04:52:25;10.70;99.90
20366;DHT22;10341;49.894;8.822;2023-11-19T04:57:45;10.70;99.90
20366;DHT22;10341;49.894;8.822;2023-11-19T05:09:45;10.80;99.90
20366;DHT22;10341;49.894;8.822;2023-11-19T05:15:05;10.80;99.90
20366;DHT22;10341;49.894;8.822;2023-11-19T05:20:24;10.90;99.90
20366;DHT22;10341;49.894;8.822;2023-11-19T05:25:43;11.00;99.90
20366;DHT22;10341;49.894;8.822;2023-11-19T05:31:02;11.00;99.90
20366;DHT22;10341;49.894;8.822;2023-11-19T05:36:21;11.00;99.90
20366;DHT22;10341;49.894;8.822;2023-11-19T05:41:40;11.00;99.90
20366;DHT22;10341;49.894;8.822;2023-11-19T05:46:59;11.00;99.90
20366;DHT22;10341;49.894;8.822;2023-11-19T05:52:18;11.10;99.90
20366;DHT22;10341;49.894;8.822;2023-11-19T05:57:37;11.10;99.90
20366;DHT22;10341;49.894;8.822;2023-11-19T06:02:57;11.20;99.90
20366;DHT22;10341;49.894;8.822;2023-11-19T06:08:16;11.30;99.90
20366;DHT22;10341;49.894;8.822;2023-11-19T06:13:36;11.40;99.90
20366;DHT22;10341;49.894;8.822;2023-11-19T06:18:55;11.50;99.90
20366;DHT22;10341;49.894;8.822;2023-11-19T06:24:15;11.50;99.90
20366;DHT22;10341;49.894;8.822;2023-11-19T06:29:34;11.60;99.90
20366;DHT22;10341;49.894;8.822;2023-11-19T06:34:53;11.60;99.90
20366;DHT22;10341;49.894;8.822;2023-11-19T06:40:12;11.60;99.90
20366;DHT22;10341;49.894;8.822;2023-11-19T06:45:32;11.70;99.90
20366;DHT22;10341;49.894;8.822;2023-11-19T06:50:51;11.70;99.90
20366;DHT22;10341;49.894;8.822;2023-11-19T06:56:20;11.70;99.90
20366;DHT22;10341;49.894;8.822;2023-11-19T07:01:40;11.60;99.90
20366;DHT22;10341;49.894;8.822;2023-11-19T07:07:02;11.70;99.90
20366;DHT22;10341;49.894;8.822;2023-11-19T07:12:22;11.70;99.90
20366;DHT22;10341;49.894;8.822;2023-11-19T07:17:41;11.70;99.90
20366;DHT22;10341;49.894;8.822;2023-11-19T07:23:00;11.80;99.90
20366;DHT22;10341;49.894;8.822;2023-11-19T07:28:19;11.80;99.90
20366;DHT22;10341;49.894;8.822;2023-11-19T07:33:39;11.80;99.90
20366;DHT22;10341;49.894;8.822;2023-11-19T07:38:59;11.80;99.90
20366;DHT22;10341;49.894;8.822;2023-11-19T07:44:19;11.90;99.90
20366;DHT22;10341;49.894;8.822;2023-11-19T07:49:39;12.10;99.90
20366;DHT22;10341;49.894;8.822;2023-11-19T07:54:58;12.30;99.90
20366;DHT22;10341;49.894;8.822;2023-11-19T08:00:18;12.40;99.90
20366;DHT22;10341;49.894;8.822;2023-11-19T08:05:38;13.20;99.90
20366;DHT22;10341;49.894;8.822;2023-11-19T08:10:58;15.00;99.90
20366;DHT22;10341;49.894;8.822;2023-11-19T08:16:17;17.00;99.90
20366;DHT22;10341;49.894;8.822;2023-11-19T08:21:36;17.60;99.90
20366;DHT22;10341;49.894;8.822;2023-11-19T08:26:56;17.80;99.90
20366;DHT22;10341;49.894;8.822;2023-11-19T08:32:15;18.70;99.90
20366;DHT22;10341;49.894;8.822;2023-11-19T08:37:34;20.30;99.90
20366;DHT22;10341;49.894;8.822;2023-11-19T08:42:56;21.50;99.90
20366;DHT22;10341;49.894;8.822;2023-11-19T08:48:15;21.60;99.90
20366;DHT22;10341;49.894;8.822;2023-11-19T08:53:34;21.70;99.90
20366;DHT22;10341;49.894;8.822;2023-11-19T08:58:54;20.20;99.90
20366;DHT22;10341;49.894;8.822;2023-11-19T09:04:13;17.90;99.90
20366;DHT22;10341;49.894;8.822;2023-11-19T09:09:33;16.00;99.90
20366;DHT22;10341;49.894;8.822;2023-11-19T09:14:54;15.00;99.90
20366;DHT22;10341;49.894;8.822;2023-11-19T09:20:14;14.40;99.90
20366;DHT22;10341;49.894;8.822;2023-11-19T09:25:34;14.30;99.90
20366;DHT22;10341;49.894;8.822;2023-11-19T09:30:53;14.90;99.90
20366;DHT22;10341;49.894;8.822;2023-11-19T09:36:12;14.50;99.90
20366;DHT22;10341;49.894;8.822;2023-11-19T09:41:35;15.30;99.90
20366;DHT22;10341;49.894;8.822;2023-11-19T09:46:54;16.70;99.90
20366;DHT22;10341;49.894;8.822;2023-11-19T09:52:14;16.10;99.90
20366;DHT22;10341;49.894;8.822;2023-11-19T09:57:34;15.20;99.90
20366;DHT22;10341;49.894;8.822;2023-11-19T10:02:56;15.00;99.90
20366;DHT22;10341;49.894;8.822;2023-11-19T10:08:16;14.80;99.90
20366;DHT22;10341;49.894;8.822;2023-11-19T10:13:36;14.60;99.90
20366;DHT22;10341;49.894;8.822;2023-11-19T10:19:00;14.20;99.90
20366;DHT22;10341;49.894;8.822;2023-11-19T10:24:31;14.00;99.90
20366;DHT22;10341;49.894;8.822;2023-11-19T10:29:52;13.80;99.90
20366;DHT22;10341;49.894;8.822;2023-11-19T10:35:11;13.60;99.90
20366;DHT22;10341;49.894;8.822;2023-11-19T10:40:39;13.40;99.90
20366;DHT22;10341;49.894;8.822;2023-11-19T10:46:12;13.50;99.90
20366;DHT22;10341;49.894;8.822;2023-11-19T10:51:32;13.60;99.90
20366;DHT22;10341;49.894;8.822;2023-11-19T10:56:55;13.60;99.90
20366;DHT22;10341;49.894;8.822;2023-11-19T11:02:20;13.60;99.90
20366;DHT22;10341;49.894;8.822;2023-11-19T11:07:40;13.70;99.90
20366;DHT22;10341;49.894;8.822;2023-11-19T11:13:03;13.80;99.90
20366;DHT22;10341;49.894;8.822;2023-11-19T11:18:22;13.90;99.90
20366;DHT22;10341;49.894;8.822;2023-11-19T11:29:26;14.00;99.90
20366;DHT22;10341;49.894;8.822;2023-11-19T11:35:12;15.80;99.90
20366;DHT22;10341;49.894;8.822;2023-11-19T11:40:33;20.80;99.90
20366;DHT22;10341;49.894;8.822;2023-11-19T11:45:53;21.30;99.90
20366;DHT22;10341;49.894;8.822;2023-11-19T11:51:12;20.40;99.90
20366;DHT22;10341;49.894;8.822;2023-11-19T11:56:37;19.10;99.90
20366;DHT22;10341;49.894;8.822;2023-11-19T12:01:58;19.10;99.90
20366;DHT22;10341;49.894;8.822;2023-11-19T12:07:23;18.00;99.90
20366;DHT22;10341;49.894;8.822;2023-11-19T12:12:42;16.70;99.90
20366;DHT22;10341;49.894;8.822;2023-11-19T12:18:02;16.10;99.90
20366;DHT22;10341;49.894;8.822;2023-11-19T12:23:22;16.50;99.90
20366;DHT22;10341;49.894;8.822;2023-11-19T12:28:57;16.40;99.90
20366;DHT22;10341;49.894;8.822;2023-11-19T12:34:16;16.10;99.90
20366;DHT22;10341;49.894;8.822;2023-11-19T12:39:35;16.30;99.90
20366;DHT22;10341;49.894;8.822;2023-11-19T12:44:55;16.40;99.90
20366;DHT22;10341;49.894;8.822;2023-11-19T12:50:16;16.70;99.90
20366;DHT22;10341;49.894;8.822;2023-11-19T12:55:39;17.00;99.90
20366;DHT22;10341;49.894;8.822;2023-11-19T13:01:03;16.70;99.90
20366;DHT22;10341;49.894;8.822;2023-11-19T13:06:22;16.30;99.90
20366;DHT22;10341;49.894;8.822;2023-11-19T13:11:41;16.10;99.90
20366;DHT22;10341;49.894;8.822;2023-11-19T13:17:01;15.80;99.90
20366;DHT22;10341;49.894;8.822;2023-11-19T13:22:20;15.60;99.90
20366;DHT22;10341;49.894;8.822;2023-11-19T13:27:40;15.60;99.90
20366;DHT22;10341;49.894;8.822;2023-11-19T13:32:59;15.40;99.90
20366;DHT22;10341;49.894;8.822;2023-11-19T13:38:20;15.40;99.90
20366;DHT22;10341;49.894;8.822;2023-11-19T13:43:39;15.40;99.90
20366;DHT22;10341;49.894;8.822;2023-11-19T13:48:59;15.30;99.90
20366;DHT22;10341;49.894;8.822;2023-11-19T13:54:18;15.20;99.90
20366;DHT22;10341;49.894;8.822;2023-11-19T13:59:41;15.20;99.90
20366;DHT22;10341;49.894;8.822;2023-11-19T14:05:01;15.00;99.90
20366;DHT22;10341;49.894;8.822;2023-11-19T14:10:21;14.90;99.90
20366;DHT22;10341;49.894;8.822;2023-11-19T14:15:40;14.80;99.90
20366;DHT22;10341;49.894;8.822;2023-11-19T14:21:00;14.60;99.90
20366;DHT22;10341;49.894;8.822;2023-11-19T14:26:20;14.50;99.90
20366;DHT22;10341;49.894;8.822;2023-11-19T14:31:39;14.40;99.90
20366;DHT22;10341;49.894;8.822;2023-11-19T14:36:59;14.30;99.90
20366;DHT22;10341;49.894;8.822;2023-11-19T14:42:19;14.20;99.90
20366;DHT22;10341;49.894;8.822;2023-11-19T14:47:38;14.30;99.90
20366;DHT22;10341;49.894;8.822;2023-11-19T14:52:58;14.30;99.90
20366;DHT22;10341;49.894;8.822;2023-11-19T14:58:17;14.20;99.90
20366;DHT22;10341;49.894;8.822;2023-11-19T15:03:37;14.10;99.90
20366;DHT22;10341;49.894;8.822;2023-11-19T15:08:56;14.00;99.90
20366;DHT22;10341;49.894;8.822;2023-11-19T15:14:16;14.00;99.90
20366;DHT22;10341;49.894;8.822;2023-11-19T15:19:37;14.00;99.90
20366;DHT22;10341;49.894;8.822;2023-11-19T15:24:57;13.80;99.90
20366;DHT22;10341;49.894;8.822;2023-11-19T15:30:17;13.60;99.90
20366;DHT22;10341;49.894;8.822;2023-11-19T15:35:36;13.50;99.90
20366;DHT22;10341;49.894;8.822;2023-11-19T15:40:56;13.40;99.90
20366;DHT22;10341;49.894;8.822;2023-11-19T15:46:16;13.30;99.90
20366;DHT22;10341;49.894;8.822;2023-11-19T15:51:35;13.30;99.90
20366;DHT22;10341;49.894;8.822;2023-11-19T15:56:55;13.30;99.90
20366;DHT22;10341;49.894;8.822;2023-11-19T16:02:14;13.10;99.90
20366;DHT22;10341;49.894;8.822;2023-11-19T16:07:35;13.00;99.90
20366;DHT22;10341;49.894;8.822;2023-11-19T16:12:54;13.00;99.90
20366;DHT22;10341;49.894;8.822;2023-11-19T16:18:14;13.10;99.90
20366;DHT22;10341;49.894;8.822;2023-11-19T16:23:33;13.00;99.90
20366;DHT22;10341;49.894;8.822;2023-11-19T16:28:54;12.90;99.90
20366;DHT22;10341;49.894;8.822;2023-11-19T16:34:13;12.80;99.90
20366;DHT22;10341;49.894;8.822;2023-11-19T16:39:33;12.80;99.90
20366;DHT22;10341;49.894;8.822;2023-11-19T16:44:53;12.70;99.90
20366;DHT22;10341;49.894;8.822;2023-11-19T16:50:12;12.60;99.90
20366;DHT22;10341;49.894;8.822;2023-11-19T16:55:34;12.70;99.90
20366;DHT22;10341;49.894;8.822;2023-11-19T17:00:54;12.60;99.90
20366;DHT22;10341;49.894;8.822;2023-11-19T17:06:13;12.60;99.90
20366;DHT22;10341;49.894;8.822;2023-11-19T17:11:33;12.30;99.90
20366;DHT22;10341;49.894;8.822;2023-11-19T17:16:55;12.30;99.90
20366;DHT22;10341;49.894;8.822;2023-11-19T17:22:14;12.30;99.90
20366;DHT22;10341;49.894;8.822;2023-11-19T17:27:34;12.30;99.90
20366;DHT22;10341;49.894;8.822;2023-11-19T17:32:53;12.30;99.90
20366;DHT22;10341;49.894;8.822;2023-11-19T17:38:13;12.30;99.90
20366;DHT22;10341;49.894;8.822;2023-11-19T17:43:32;12.20;99.90
20366;DHT22;10341;49.894;8.822;2023-11-19T17:48:52;12.30;99.90
20366;DHT22;10341;49.894;8.822;2023-11-19T17:54:11;12.30;99.90
20366;DHT22;10341;49.894;8.822;2023-11-19T17:59:31;12.30;99.90
20366;DHT22;10341;49.894;8.822;2023-11-19T18:04:50;12.30;99.90
20366;DHT22;10341;49.894;8.822;2023-11-19T18:10:10;12.30;99.90
20366;DHT22;10341;49.894;8.822;2023-11-19T18:15:29;12.20;99.90
20366;DHT22;10341;49.894;8.822;2023-11-19T18:20:49;12.30;99.90
20366;DHT22;10341;49.894;8.822;2023-11-19T18:26:08;12.20;99.90
20366;DHT22;10341;49.894;8.822;2023-11-19T18:31:27;12.10;99.90
20366;DHT22;10341;49.894;8.822;2023-11-19T18:36:47;12.00;99.90
20366;DHT22;10341;49.894;8.822;2023-11-19T18:42:06;11.90;99.90
20366;DHT22;10341;49.894;8.822;2023-11-19T18:47:26;12.00;99.90
20366;DHT22;10341;49.894;8.822;2023-11-19T18:52:46;12.00;99.90
20366;DHT22;10341;49.894;8.822;2023-11-19T18:58:06;12.10;99.90
20366;DHT22;10341;49.894;8.822;2023-11-19T19:03:25;12.00;99.90
20366;DHT22;10341;49.894;8.822;2023-11-19T19:08:50;11.90;99.90
20366;DHT22;10341;49.894;8.822;2023-11-19T19:14:09;11.90;99.90
20366;DHT22;10341;49.894;8.822;2023-11-19T19:19:30;11.70;99.90
20366;DHT22;10341;49.894;8.822;2023-11-19T19:24:50;11.70;99.90
20366;DHT22;10341;49.894;8.822;2023-11-19T19:30:10;11.60;99.90
20366;DHT22;10341;49.894;8.822;2023-11-19T19:35:30;11.60;99.90
20366;DHT22;10341;49.894;8.822;2023-11-19T19:40:50;11.60;99.90
20366;DHT22;10341;49.894;8.822;2023-11-19T19:46:09;11.70;99.90
20366;DHT22;10341;49.894;8.822;2023-11-19T19:51:28;11.80;99.90
20366;DHT22;10341;49.894;8.822;2023-11-19T19:56:47;11.90;99.90
20366;DHT22;10341;49.894;8.822;2023-11-19T20:02:06;12.10;99.90
20366;DHT22;10341;49.894;8.822;2023-11-19T20:07:26;12.20;99.90
20366;DHT22;10341;49.894;8.822;2023-11-19T20:12:45;12.40;99.90
20366;DHT22;10341;49.894;8.822;2023-11-19T20:18:05;12.40;99.90
20366;DHT22;10341;49.894;8.822;2023-11-19T20:23:29;12.40;99.90
20366;DHT22;10341;49.894;8.822;2023-11-19T20:28:48;12.50;99.90
20366;DHT22;10341;49.894;8.822;2023-11-19T20:34:07;12.50;99.90
20366;DHT22;10341;49.894;8.822;2023-11-19T20:39:26;12.50;99.90
20366;DHT22;10341;49.894;8.822;2023-11-19T20:44:47;12.50;99.90
20366;DHT22;10341;49.894;8.822;2023-11-19T20:50:06;12.50;99.90
20366;DHT22;10341;49.894;8.822;2023-11-19T20:55:26;12.60;99.90
20366;DHT22;10341;49.894;8.822;2023-11-19T21:00:46;12.50;99.90
20366;DHT22;10341;49.894;8.822;2023-11-19T21:06:06;12.50;99.90
20366;DHT22;10341;49.894;8.822;2023-11-19T21:11:25;12.50;99.90
20366;DHT22;10341;49.894;8.822;2023-11-19T21:16:44;12.50;99.90
20366;DHT22;10341;49.894;8.822;2023-11-19T21:22:04;12.60;99.90
20366;DHT22;10341;49.894;8.822;2023-11-19T21:27:23;12.60;99.90
20366;DHT22;10341;49.894;8.822;2023-11-19T21:32:42;12.60;99.90
20366;DHT22;10341;49.894;8.822;2023-11-19T21:38:01;12.60;99.90
20366;DHT22;10341;49.894;8.822;2023-11-19T21:43:21;12.60;99.90
20366;DHT22;10341;49.894;8.822;2023-11-19T21:48:41;12.60;99.90
20366;DHT22;10341;49.894;8.822;2023-11-19T21:54:01;12.60;99.90
20366;DHT22;10341;49.894;8.822;2023-11-19T21:59:21;12.60;99.90
20366;DHT22;10341;49.894;8.822;2023-11-19T22:04:41;12.60;99.90
20366;DHT22;10341;49.894;8.822;2023-11-19T22:09:59;12.60;99.90
20366;DHT22;10341;49.894;8.822;2023-11-19T22:15:18;12.60;99.90
20366;DHT22;10341;49.894;8.822;2023-11-19T22:20:37;12.60;99.90
20366;DHT22;10341;49.894;8.822;2023-11-19T22:25:57;12.60;99.90
20366;DHT22;10341;49.894;8.822;2023-11-19T22:31:16;12.60;99.90
20366;DHT22;10341;49.894;8.822;2023-11-19T22:36:35;12.70;99.90
20366;DHT22;10341;49.894;8.822;2023-11-19T22:41:54;12.70;99.90
20366;DHT22;10341;49.894;8.822;2023-11-19T22:47:13;12.70;99.90
20366;DHT22;10341;49.894;8.822;2023-11-19T22:52:32;12.70;99.90
20366;DHT22;10341;49.894;8.822;2023-11-19T22:57:52;12.70;99.90
20366;DHT22;10341;49.894;8.822;2023-11-19T23:03:12;12.70;99.90
20366;DHT22;10341;49.894;8.822;2023-11-19T23:08:31;12.70;99.90
20366;DHT22;10341;49.894;8.822;2023-11-19T23:13:50;12.70;99.90
20366;DHT22;10341;49.894;8.822;2023-11-19T23:19:09;12.70;99.90
20366;DHT22;10341;49.894;8.822;2023-11-19T23:24:29;12.60;99.90
20366;DHT22;10341;49.894;8.822;2023-11-19T23:29:49;12.70;99.90
20366;DHT22;10341;49.894;8.822;2023-11-19T23:35:08;12.70;99.90
20366;DHT22;10341;49.894;8.822;2023-11-19T23:40:30;12.70;99.90
20366;DHT22;10341;49.894;8.822;2023-11-19T23:45:49;12.60;99.90
20366;DHT22;10341;49.894;8.822;2023-11-19T23:51:08;12.60;99.90
20366;DHT22;10341;49.894;8.822;2023-11-19T23:56:27;12.60;99.90
